createdAt,value
2022-08-26T00:01:45.564Z,26.9
2022-08-26T00:03:47.565Z,40
2022-08-26T00:05:49.479Z,29.6
2022-08-26T00:07:52.714Z,36
2022-08-26T00:09:56.501Z,24.7
2022-08-26T00:11:58.467Z,40.5
2022-08-26T00:14:00.439Z,41.5
2022-08-26T00:16:02.430Z,27.7
2022-08-26T00:18:04.392Z,20.3
2022-08-26T00:22:08.354Z,39.5
2022-08-26T00:24:13.462Z,27.6
2022-08-26T00:26:15.545Z,30.3
2022-08-26T00:28:17.367Z,35
2022-08-26T00:31:21.960Z,33.9
2022-08-26T00:35:25.811Z,23.7
2022-08-26T00:37:30.875Z,37.6
2022-08-26T00:39:32.842Z,29.5
2022-08-26T00:41:34.895Z,37.5
2022-08-26T00:43:39.542Z,19.2
2022-08-26T00:45:38.824Z,29
2022-08-26T00:47:40.771Z,28.3
2022-08-26T00:49:42.755Z,39.9
2022-08-26T00:51:47.818Z,26.9
2022-08-26T00:53:49.786Z,23
2022-08-26T00:55:51.779Z,28.4
2022-08-26T00:57:53.739Z,26.3
2022-08-26T00:59:55.719Z,22.4
2022-08-26T01:01:57.773Z,33
2022-08-26T01:03:59.694Z,35
2022-08-26T01:06:04.749Z,37
2022-08-26T01:08:06.733Z,26.4
2022-08-26T01:10:08.711Z,39.6
2022-08-26T01:12:10.711Z,37.4
2022-08-26T01:14:12.675Z,41.6
2022-08-26T01:16:14.690Z,26.3
2022-08-26T01:18:16.648Z,50.9
2022-08-26T01:20:21.693Z,31.6
2022-08-26T01:22:28.109Z,30.7
2022-08-26T01:24:25.648Z,28.3
2022-08-26T01:27:30.152Z,28.8
2022-08-26T01:29:32.158Z,28.2
2022-08-26T01:31:34.133Z,40.6
2022-08-26T01:33:42.026Z,35.3
2022-08-26T01:35:41.198Z,37.8
2022-08-26T01:37:43.166Z,42.8
2022-08-26T01:39:45.161Z,25.9
2022-08-26T01:41:47.143Z,34.2
2022-08-26T01:43:49.142Z,33.3
2022-08-26T01:45:51.133Z,31.2
2022-08-26T01:47:57.186Z,31.7
2022-08-26T01:49:58.163Z,28.9
2022-08-26T01:52:00.154Z,20.7
2022-08-26T01:54:02.132Z,27.3
2022-08-26T01:56:04.110Z,18.8
2022-08-26T01:58:06.117Z,17.6
2022-08-26T02:00:08.108Z,23.4
2022-08-26T02:02:13.172Z,30.1
2022-08-26T02:04:15.240Z,30.4
2022-08-26T02:06:17.140Z,27.5
2022-08-26T02:08:24.624Z,33.5
2022-08-26T02:10:21.103Z,22.4
2022-08-26T02:12:23.150Z,22.4
2022-08-26T02:14:26.751Z,23.2
2022-08-26T02:16:30.174Z,25.9
2022-08-26T02:18:32.150Z,30.2
2022-08-26T02:20:34.138Z,13.6
2022-08-26T02:22:56.900Z,24.9
2022-08-26T02:24:58.907Z,14.4
2022-08-26T02:27:00.881Z,16.6
2022-08-26T02:29:05.962Z,25.9
2022-08-26T02:31:08.141Z,19.1
2022-08-26T02:33:09.940Z,10.6
2022-08-26T02:35:11.907Z,15
2022-08-26T02:37:13.908Z,16.2
2022-08-26T02:39:19.563Z,28.4
2022-08-26T02:41:18.087Z,10.8
2022-08-26T02:43:31.191Z,16.9
2022-08-26T02:45:24.939Z,19.7
2022-08-26T02:47:28.994Z,23.8
2022-08-26T02:49:28.922Z,21.4
2022-08-26T02:51:30.899Z,9.6
2022-08-26T02:55:34.888Z,17.6
2022-08-26T02:59:41.923Z,22.3
2022-08-26T03:01:43.944Z,15.1
2022-08-26T03:11:56.921Z,9.2
2022-08-26T03:17:03.395Z,9.4
2022-08-26T03:25:14.437Z,16
2022-08-26T03:27:16.390Z,4
2022-08-26T03:29:18.380Z,15.9
2022-08-26T03:31:20.398Z,9.6
2022-08-26T03:35:24.345Z,5
2022-08-26T03:37:26.318Z,9.5
2022-08-26T03:41:33.350Z,4.4
2022-08-26T03:45:37.334Z,13.7
2022-08-26T03:47:39.320Z,22.1
2022-08-26T03:49:41.294Z,10.3
2022-08-26T03:51:43.289Z,17.4
2022-08-26T03:53:48.393Z,16.3
2022-08-26T03:55:51.965Z,16.4
2022-08-26T03:57:52.324Z,13.3
2022-08-26T03:59:54.301Z,10.3
2022-08-26T04:01:56.379Z,11.6
2022-08-26T04:04:00.003Z,13.9
2022-08-26T04:06:00.287Z,19.2
2022-08-26T04:08:05.382Z,13.4
2022-08-26T04:10:07.328Z,9.9
2022-08-26T04:12:09.307Z,18
2022-08-26T04:13:11.851Z,8.2
2022-08-26T04:15:13.831Z,11.4
2022-08-26T04:17:15.835Z,13.4
2022-08-26T04:25:28.330Z,9.7
2022-08-26T04:27:30.344Z,5.6
2022-08-26T04:29:32.304Z,10
2022-08-26T04:31:34.339Z,10
2022-08-26T04:33:36.288Z,18.7
2022-08-26T04:35:43.606Z,14.5
2022-08-26T04:37:43.328Z,15.2
2022-08-26T04:39:45.341Z,4.2
2022-08-26T04:41:47.320Z,21.2
2022-08-26T04:43:49.357Z,28.6
2022-08-26T04:45:51.280Z,3.3
2022-08-26T04:47:53.279Z,5
2022-08-26T04:49:58.337Z,14.6
2022-08-26T04:52:00.321Z,6.5
2022-08-26T04:54:02.336Z,11.9
2022-08-26T04:56:04.528Z,5.9
2022-08-26T04:58:06.279Z,5.6
2022-08-26T05:00:08.288Z,23
2022-08-26T05:02:10.300Z,9.1
2022-08-26T05:04:16.241Z,14.9
2022-08-26T05:06:17.353Z,4
2022-08-26T05:08:19.342Z,15.9
2022-08-26T05:11:23.836Z,6.4
2022-08-26T05:13:25.835Z,14.8
2022-08-26T05:15:27.815Z,10.7
2022-08-26T05:17:32.873Z,16.3
2022-08-26T05:19:34.862Z,7.5
2022-08-26T05:21:36.858Z,16.2
2022-08-26T05:23:38.831Z,4.5
2022-08-26T05:27:42.780Z,9.5
2022-08-26T05:29:44.759Z,6.4
2022-08-26T05:31:49.823Z,9.1
2022-08-26T05:33:51.818Z,9.8
2022-08-26T05:35:53.786Z,14.5
2022-08-26T05:37:55.760Z,9.7
2022-08-26T05:39:57.764Z,5.2
2022-08-26T05:41:59.714Z,14.5
2022-08-26T05:50:10.727Z,14.6
2022-08-26T05:52:12.675Z,14.8
2022-08-26T05:54:14.648Z,11.9
2022-08-26T05:56:16.633Z,22.1
2022-08-26T06:00:23.650Z,13.9
2022-08-26T06:04:28.890Z,8.3
2022-08-26T06:06:50.342Z,15.2
2022-08-26T06:08:52.293Z,11.6
2022-08-26T06:10:54.243Z,9.1
2022-08-26T06:12:59.318Z,11.4
2022-08-26T06:17:03.286Z,11.7
2022-08-26T06:19:11.064Z,16.9
2022-08-26T06:21:07.182Z,16.7
2022-08-26T06:25:11.127Z,14.5
2022-08-26T06:27:16.168Z,36.3
2022-08-26T06:29:24.526Z,4.5
2022-08-26T06:31:20.172Z,14
2022-08-26T06:33:22.073Z,8.9
2022-08-26T06:35:24.027Z,4.2
2022-08-26T06:37:26.059Z,2.7
2022-08-26T06:39:28.141Z,8
2022-08-26T06:41:33.014Z,17.1
2022-08-26T06:43:35.002Z,8.5
2022-08-26T06:45:36.969Z,22.8
2022-08-26T06:47:38.911Z,8.7
2022-08-26T06:49:40.904Z,26.5
2022-08-26T06:51:42.860Z,13.9
2022-08-26T06:53:44.833Z,10.7
2022-08-26T06:55:51.850Z,4
2022-08-26T06:57:51.842Z,6.1
2022-08-26T06:59:53.809Z,9.8
2022-08-26T07:01:00.628Z,10
2022-08-26T07:02:58.391Z,4.3
2022-08-26T07:05:00.258Z,15.3
2022-08-26T07:07:02.253Z,10.4
2022-08-26T07:09:07.292Z,14.1
2022-08-26T07:11:09.241Z,23.4
2022-08-26T07:13:11.206Z,6
2022-08-26T07:15:13.173Z,12.6
2022-08-26T07:17:15.130Z,23.6
2022-08-26T07:19:17.100Z,10.5
2022-08-26T07:21:19.048Z,13.3
2022-08-26T07:23:24.116Z,4.6
2022-08-26T07:25:26.072Z,7.2
2022-08-26T07:27:28.025Z,5
2022-08-26T07:29:29.980Z,4.9
2022-08-26T07:31:35.995Z,4.4
2022-08-26T07:33:33.882Z,7.8
2022-08-26T07:35:35.837Z,5.7
2022-08-26T07:37:40.866Z,8.8
2022-08-26T07:39:43.315Z,20.4
2022-08-26T07:41:44.790Z,3.3
2022-08-26T07:43:46.720Z,16.2
2022-08-26T07:45:48.703Z,9.1
2022-08-26T07:47:50.609Z,11.8
2022-08-26T07:49:52.784Z,9.2
2022-08-26T07:51:57.585Z,13.6
2022-08-26T07:53:59.518Z,8.7
2022-08-26T07:56:01.477Z,13.5
2022-08-26T08:01:07.910Z,10.4
2022-08-26T08:03:09.997Z,8.3
2022-08-26T08:09:18.708Z,12.8
2022-08-26T08:11:20.585Z,4.1
2022-08-26T08:13:22.510Z,2.8
2022-08-26T08:15:24.440Z,16.6
2022-08-26T08:17:26.388Z,8.2
2022-08-26T08:23:35.232Z,6.1
2022-08-26T08:25:37.154Z,5.3
2022-08-26T08:27:39.087Z,5.1
2022-08-26T08:29:40.987Z,7.1
2022-08-26T08:31:56.132Z,7.7
2022-08-26T08:33:47.925Z,4.7
2022-08-26T08:35:49.820Z,9.2
2022-08-26T08:37:51.768Z,5.8
2022-08-26T08:39:53.716Z,6.9
2022-08-26T08:41:55.596Z,3.5
2022-08-26T08:43:57.518Z,11.1
2022-08-26T08:45:59.915Z,4
2022-08-26T08:48:04.475Z,6.4
2022-08-26T08:50:06.390Z,12
2022-08-26T08:52:08.283Z,7.9
2022-08-26T08:53:10.813Z,4.4
2022-08-26T08:55:14.821Z,8
2022-08-26T08:59:16.674Z,6.5
2022-08-26T09:07:27.381Z,6.5
2022-08-26T09:09:29.298Z,4.4
2022-08-26T09:11:31.228Z,10.5
2022-08-26T09:15:38.185Z,5.8
2022-08-26T09:17:40.120Z,8.2
2022-08-26T09:19:42.037Z,8.1
2022-08-26T09:25:47.903Z,4.3
2022-08-26T09:33:58.653Z,6.3
2022-08-26T09:40:04.517Z,2.5
2022-08-26T09:42:06.378Z,15.4
2022-08-26T09:44:14.617Z,9.3
2022-08-26T09:46:13.369Z,7.4
2022-08-26T09:50:31.824Z,6
2022-08-26T09:52:33.733Z,9.1
2022-08-26T09:56:40.663Z,2.4
2022-08-26T09:58:42.575Z,10.8
2022-08-26T10:02:47.770Z,21.2
2022-08-26T10:04:48.360Z,3.9
2022-08-26T10:06:50.505Z,7.9
2022-08-26T10:08:52.275Z,11
2022-08-26T10:10:57.241Z,20.5
2022-08-26T10:12:59.159Z,11.8
2022-08-26T10:15:01.211Z,2.8
2022-08-26T10:17:05.292Z,2.3
2022-08-26T10:19:06.429Z,9.6
2022-08-26T10:21:08.363Z,8.9
2022-08-26T10:23:10.483Z,11.6
2022-08-26T10:25:15.304Z,6.7
2022-08-26T10:27:17.267Z,12.2
2022-08-26T10:29:19.168Z,15.6
2022-08-26T10:31:21.143Z,4.4
2022-08-26T10:37:26.871Z,13
2022-08-26T10:44:38.227Z,7.4
2022-08-26T10:46:40.149Z,6.6
2022-08-26T10:48:42.048Z,4.1
2022-08-26T10:50:43.969Z,8.9
2022-08-26T10:52:48.982Z,4.6
2022-08-26T10:54:50.919Z,2.8
2022-08-26T10:56:52.822Z,9.8
2022-08-26T10:58:54.722Z,1.7
2022-08-26T11:00:56.752Z,3
2022-08-26T11:02:58.551Z,13.9
2022-08-26T11:05:00.761Z,5.2
2022-08-26T11:07:05.533Z,10.2
2022-08-26T11:09:07.363Z,10
2022-08-26T11:11:09.293Z,6.2
2022-08-26T11:13:11.260Z,3.1
2022-08-26T11:15:13.245Z,0.8
2022-08-26T11:17:14.983Z,4.5
2022-08-26T11:19:16.905Z,11.8
2022-08-26T11:21:22.266Z,11.8
2022-08-26T11:23:23.966Z,12.9
2022-08-26T11:25:30.082Z,10.5
2022-08-26T11:27:27.680Z,9.2
2022-08-26T11:29:29.592Z,13.6
2022-08-26T11:31:31.780Z,14.4
2022-08-26T11:33:33.457Z,2.9
2022-08-26T11:35:38.494Z,6.5
2022-08-26T11:37:41.170Z,20.1
2022-08-26T11:39:46.269Z,10.2
2022-08-26T11:40:44.889Z,7.9
2022-08-26T11:42:46.760Z,7.9
2022-08-26T11:44:49.291Z,6.1
2022-08-26T11:46:50.601Z,3.4
2022-08-26T11:48:55.598Z,2.1
2022-08-26T11:50:57.525Z,7.6
2022-08-26T11:52:59.456Z,11
2022-08-26T11:55:01.362Z,8.4
2022-08-26T11:59:05.190Z,4.6
2022-08-26T12:01:09.785Z,4
2022-08-26T12:03:12.410Z,1.6
2022-08-26T12:05:14.042Z,16.9
2022-08-26T12:07:15.950Z,2.6
2022-08-26T12:09:17.865Z,5
2022-08-26T12:11:19.747Z,9.9
2022-08-26T12:13:21.662Z,4.3
2022-08-26T12:17:28.566Z,0.8
2022-08-26T12:19:32.645Z,2.9
2022-08-26T12:21:34.631Z,6.7
2022-08-26T12:29:39.984Z,4.9
2022-08-26T12:35:51.428Z,3.2
2022-08-26T12:36:53.252Z,1.3
2022-08-26T12:38:56.501Z,12.2
2022-08-26T12:45:02.113Z,4.3
2022-08-26T12:47:03.951Z,3.1
2022-08-26T12:51:08.756Z,11.5
2022-08-26T12:53:10.638Z,4.9
2022-08-26T12:59:19.549Z,3.9
2022-08-26T13:01:21.580Z,7.8
2022-08-26T13:03:23.406Z,4.4
2022-08-26T13:05:25.300Z,14.9
2022-08-26T13:07:27.296Z,8.1
2022-08-26T13:09:29.201Z,9.4
2022-08-26T13:11:31.329Z,11
2022-08-26T13:13:36.116Z,3.4
2022-08-26T13:15:38.041Z,8.3
2022-08-26T13:17:39.957Z,9.2
2022-08-26T13:19:41.893Z,6.7
2022-08-26T13:21:43.857Z,9.5
2022-08-26T13:25:47.673Z,6.4
2022-08-26T13:27:52.705Z,1.7
2022-08-26T13:29:54.668Z,1.7
2022-08-26T13:31:56.797Z,3.4
2022-08-26T13:34:19.193Z,4.1
2022-08-26T13:36:21.081Z,9.3
2022-08-26T13:38:33.189Z,7.1
2022-08-26T13:40:31.304Z,9.5
2022-08-26T13:42:29.957Z,6.6
2022-08-26T13:44:31.919Z,11.6
2022-08-26T13:46:34.035Z,2.6
2022-08-26T13:48:35.949Z,5.6
2022-08-26T13:50:37.646Z,1.4
2022-08-26T13:52:39.648Z,5.2
2022-08-26T13:54:44.607Z,3
2022-08-26T13:56:46.528Z,4.5
2022-08-26T13:58:48.467Z,3.8
2022-08-26T14:00:50.465Z,3.7
2022-08-26T14:02:52.440Z,1.3
2022-08-26T14:04:54.229Z,3.4
2022-08-26T14:06:56.155Z,3.3
2022-08-26T14:09:01.176Z,4.7
2022-08-26T14:13:04.984Z,2.5
2022-08-26T14:15:06.925Z,3.1
2022-08-26T14:17:08.879Z,5.7
2022-08-26T14:19:10.839Z,9.3
2022-08-26T14:21:12.658Z,2.8
2022-08-26T14:23:17.716Z,9.3
2022-08-26T14:25:19.596Z,8.2
2022-08-26T14:27:21.624Z,5.2
2022-08-26T14:34:29.818Z,5.2
2022-08-26T14:36:34.808Z,1.5
2022-08-26T14:38:36.710Z,12.5
2022-08-26T14:40:38.695Z,5.2
2022-08-26T14:42:40.579Z,4.8
2022-08-26T14:44:42.512Z,7
2022-08-26T14:46:44.506Z,3.5
2022-08-26T14:48:46.375Z,6.3
2022-08-26T14:50:51.373Z,7.8
2022-08-26T14:54:55.468Z,6.4
2022-08-26T14:58:59.161Z,3
2022-08-26T15:05:08.085Z,2.3
2022-08-26T15:07:12.636Z,8
2022-08-26T15:09:11.938Z,12.5
2022-08-26T15:11:13.835Z,19.3
2022-08-26T15:15:17.745Z,5.1
2022-08-26T15:17:19.703Z,2.2
2022-08-26T15:19:24.759Z,2.8
2022-08-26T15:21:26.636Z,7.5
2022-08-26T15:23:28.597Z,6.7
2022-08-26T15:24:31.083Z,3.4
2022-08-26T15:26:33.058Z,10.9
2022-08-26T15:28:34.998Z,16.6
2022-08-26T15:32:41.954Z,8.2
2022-08-26T15:34:43.891Z,13.7
2022-08-26T15:36:45.832Z,2.7
2022-08-26T15:38:47.803Z,5.2
2022-08-26T15:40:49.714Z,12.1
2022-08-26T15:42:57.512Z,8
2022-08-26T15:44:53.594Z,5.7
2022-08-26T15:46:58.985Z,4.9
2022-08-26T15:49:00.755Z,4.2
2022-08-26T15:51:02.556Z,5.4
2022-08-26T15:53:04.485Z,3.5
2022-08-26T15:55:06.448Z,8.6
2022-08-26T16:05:19.272Z,4.1
2022-08-26T16:07:21.284Z,7.5
2022-08-26T16:09:24.668Z,3.9
2022-08-26T16:11:26.571Z,2
2022-08-26T16:17:36.415Z,8.7
2022-08-26T16:19:37.453Z,4.9
2022-08-26T16:20:39.971Z,4.7
2022-08-26T16:22:41.955Z,14.3
2022-08-26T16:24:44.014Z,9.7
2022-08-26T16:26:45.848Z,3.5
2022-08-26T16:28:50.868Z,1.7
2022-08-26T16:30:53.017Z,4.9
2022-08-26T16:34:57.051Z,6.1
2022-08-26T16:36:58.708Z,12.2
2022-08-26T16:39:00.666Z,9.7
2022-08-26T16:43:07.640Z,6.5
2022-08-26T16:45:09.641Z,10.2
2022-08-26T16:47:11.530Z,6.4
2022-08-26T16:51:15.433Z,10.3
2022-08-26T16:53:17.446Z,5.8
2022-08-26T16:55:19.375Z,17.8
2022-08-26T16:57:24.441Z,4.7
2022-08-26T16:59:26.332Z,3.6
2022-08-26T17:01:28.392Z,5
2022-08-26T17:03:30.262Z,16.7
2022-08-26T17:07:34.200Z,20.3
2022-08-26T17:09:36.227Z,3.9
2022-08-26T17:11:41.229Z,6.8
2022-08-26T17:13:43.152Z,3.9
2022-08-26T17:15:45.150Z,10.5
2022-08-26T17:20:03.772Z,8
2022-08-26T17:22:06.105Z,2.1
2022-08-26T17:24:10.791Z,2.7
2022-08-26T17:28:14.686Z,20.5
2022-08-26T17:30:16.612Z,19.4
2022-08-26T17:32:18.578Z,3.3
2022-08-26T17:34:20.537Z,10.4
2022-08-26T17:36:22.534Z,3.4
2022-08-26T17:38:27.590Z,16.6
2022-08-26T17:40:29.616Z,1.1
2022-08-26T17:42:31.937Z,4.2
2022-08-26T17:44:33.511Z,9.7
2022-08-26T17:46:38.221Z,4.1
2022-08-26T17:48:37.476Z,5.6
2022-08-26T17:50:39.427Z,16.6
2022-08-26T17:52:44.496Z,9.3
2022-08-26T17:54:46.470Z,9.6
2022-08-26T17:56:48.592Z,9.8
2022-08-26T17:58:51.417Z,6.2
2022-08-26T18:00:52.431Z,25.9
2022-08-26T18:02:54.414Z,3.7
2022-08-26T18:04:56.437Z,11
2022-08-26T18:07:01.513Z,23.1
2022-08-26T18:09:03.469Z,16.9
2022-08-26T18:11:05.443Z,12.3
2022-08-26T18:12:08.176Z,2.4
2022-08-26T18:14:09.946Z,11.2
2022-08-26T18:16:12.056Z,21.6
2022-08-26T18:18:14.028Z,1.4
2022-08-26T18:20:18.985Z,9.9
2022-08-26T18:22:21.028Z,25.6
2022-08-26T18:24:22.964Z,7.6
2022-08-26T18:26:24.932Z,7.1
2022-08-26T18:28:26.941Z,16.4
2022-08-26T18:32:30.892Z,6.8
2022-08-26T18:34:36.904Z,29.3
2022-08-26T18:36:38.876Z,7.3
2022-08-26T18:38:40.858Z,8.9
2022-08-26T18:40:42.831Z,4.5
2022-08-26T18:42:44.840Z,17.8
2022-08-26T18:44:46.806Z,9
2022-08-26T18:46:48.802Z,8.6
2022-08-26T18:48:53.862Z,12.5
2022-08-26T18:50:55.859Z,22.4
2022-08-26T18:54:59.836Z,1.9
2022-08-26T18:57:01.960Z,6.4
2022-08-26T19:01:06.082Z,2
2022-08-26T19:05:12.905Z,4.4
2022-08-26T19:07:14.948Z,4.4
2022-08-26T19:20:32.477Z,9.6
2022-08-26T19:22:34.664Z,1.6
2022-08-26T19:38:53.509Z,14.3
2022-08-26T19:40:55.583Z,6.3
2022-08-26T19:45:02.617Z,18.3
2022-08-26T19:55:12.527Z,6.3
2022-08-26T19:57:14.528Z,11.3
2022-08-26T20:03:23.586Z,11.5
2022-08-26T20:04:26.117Z,12.5
2022-08-26T20:06:28.109Z,16.2
2022-08-26T20:10:32.128Z,3.6
2022-08-26T20:18:43.160Z,9.8
2022-08-26T20:20:45.156Z,9.1
2022-08-26T20:22:47.164Z,4.7
2022-08-26T20:24:49.167Z,13.1
2022-08-26T20:26:54.243Z,7.5
2022-08-26T20:28:56.323Z,5.7
2022-08-26T20:35:02.384Z,7.9
2022-08-26T20:37:04.217Z,7.9
2022-08-26T20:39:06.248Z,4.1
2022-08-26T20:43:13.323Z,6.4
2022-08-26T20:45:15.305Z,9.4
2022-08-26T20:47:17.331Z,3.2
2022-08-26T20:49:19.289Z,14.8
2022-08-26T20:51:21.568Z,5.7
2022-08-26T20:53:24.244Z,7.2
2022-08-26T20:55:28.404Z,14.6
2022-08-26T20:57:30.403Z,4.8
2022-08-26T20:59:32.484Z,16.3
2022-08-26T21:01:55.024Z,8.2
2022-08-26T21:03:57.057Z,13.2
2022-08-26T21:05:59.046Z,2.4
2022-08-26T21:08:04.122Z,3.9
2022-08-26T21:10:06.164Z,20.1
2022-08-26T21:12:08.265Z,19.1
2022-08-26T21:14:15.966Z,4.6
2022-08-26T21:16:12.312Z,8.6
2022-08-26T21:20:16.165Z,5.2
2022-08-26T21:22:21.238Z,10.7
2022-08-26T21:26:25.291Z,9.6
2022-08-26T21:34:33.322Z,4.8
2022-08-26T21:40:42.476Z,5.3
2022-08-26T21:42:44.439Z,7
2022-08-26T21:44:46.569Z,11.8
2022-08-26T21:50:55.603Z,4.5
2022-08-26T21:54:59.510Z,6.3
2022-08-26T21:56:02.048Z,3.3
2022-08-26T22:06:16.647Z,5.7
2022-08-26T22:12:22.724Z,7.2
2022-08-26T22:14:28.497Z,9.1
2022-08-26T22:16:26.948Z,15
2022-08-26T22:20:33.902Z,6
2022-08-26T22:22:35.886Z,9.7
2022-08-26T22:28:42.075Z,5.3
2022-08-26T22:30:44.046Z,7.7
2022-08-26T22:32:49.169Z,11.8
2022-08-26T22:36:53.176Z,24
2022-08-26T22:38:55.244Z,6.5
2022-08-26T22:40:57.273Z,3.9
2022-08-26T22:52:13.015Z,8.1
2022-08-26T22:54:15.047Z,16.4
2022-08-26T22:56:17.123Z,13
2022-08-26T22:58:19.116Z,5
2022-08-26T23:02:26.271Z,3.8
2022-08-26T23:04:28.295Z,8
2022-08-26T23:06:30.341Z,16.6
2022-08-26T23:08:32.413Z,4.1
2022-08-26T23:10:34.445Z,2.5
2022-08-26T23:12:36.441Z,5
2022-08-26T23:16:43.619Z,11.5
2022-08-26T23:18:45.643Z,9.9
2022-08-26T23:22:49.714Z,6.9
2022-08-26T23:24:51.724Z,7.8
2022-08-26T23:26:53.762Z,5.6
2022-08-26T23:28:58.902Z,17.3
2022-08-26T23:31:00.967Z,9.1
2022-08-26T23:35:04.968Z,7.5
2022-08-26T23:37:07.039Z,15.7
2022-08-26T23:39:09.083Z,7.8
2022-08-26T23:41:11.142Z,13.7
2022-08-26T23:43:16.189Z,13.7
2022-08-26T23:45:18.257Z,9.1
2022-08-26T23:47:20.260Z,5.8
2022-08-26T23:48:22.850Z,15.6
2022-08-26T23:50:24.856Z,7
2022-08-26T23:52:26.919Z,6.8
2022-08-26T23:54:28.958Z,3.8
2022-08-26T23:56:34.020Z,13.9
2022-08-26T23:58:36.055Z,12.5
